sensor_id;sensor_type;location;lat;lon;timestamp;temperature;humidity
20041;DHT22;10181;48.072;9.884;2024-01-30T00:01:00;-0.90;99.90
20041;DHT22;10181;48.072;9.884;2024-01-30T00:03:28;-0.90;99.90
20041;DHT22;10181;48.072;9.884;2024-01-30T00:05:55;-0.90;99.90
20041;DHT22;10181;48.072;9.884;2024-01-30T00:08:22;-0.90;99.90
20041;DHT22;10181;48.072;9.884;2024-01-30T00:10:48;-1.00;99.90
20041;DHT22;10181;48.072;9.884;2024-01-30T00:13:13;-1.10;99.90
20041;DHT22;10181;48.072;9.884;2024-01-30T00:15:41;-1.10;99.90
20041;DHT22;10181;48.072;9.884;2024-01-30T00:18:07;-1.10;99.90
20041;DHT22;10181;48.072;9.884;2024-01-30T00:20:32;-1.10;99.90
20041;DHT22;10181;48.072;9.884;2024-01-30T00:22:58;-1.10;99.90
20041;DHT22;10181;48.072;9.884;2024-01-30T00:25:24;-1.10;99.90
20041;DHT22;10181;48.072;9.884;2024-01-30T00:27:49;-1.20;99.90
20041;DHT22;10181;48.072;9.884;2024-01-30T00:30:15;-1.20;99.90
20041;DHT22;10181;48.072;9.884;2024-01-30T00:32:41;-1.20;99.90
20041;DHT22;10181;48.072;9.884;2024-01-30T00:35:06;-1.20;99.90
20041;DHT22;10181;48.072;9.884;2024-01-30T00:37:32;-1.20;99.90
20041;DHT22;10181;48.072;9.884;2024-01-30T00:39:58;-1.20;99.90
20041;DHT22;10181;48.072;9.884;2024-01-30T00:42:23;-1.20;99.90
20041;DHT22;10181;48.072;9.884;2024-01-30T00:44:49;-1.20;99.90
20041;DHT22;10181;48.072;9.884;2024-01-30T00:47:15;-1.20;99.90
20041;DHT22;10181;48.072;9.884;2024-01-30T00:49:40;-1.20;99.90
20041;DHT22;10181;48.072;9.884;2024-01-30T00:52:06;-1.20;99.90
20041;DHT22;10181;48.072;9.884;2024-01-30T00:54:32;-1.10;99.90
20041;DHT22;10181;48.072;9.884;2024-01-30T00:56:57;-1.10;99.90
20041;DHT22;10181;48.072;9.884;2024-01-30T00:59:23;-1.10;99.90
20041;DHT22;10181;48.072;9.884;2024-01-30T01:01:48;-1.10;99.90
20041;DHT22;10181;48.072;9.884;2024-01-30T01:04:14;-1.10;99.90
20041;DHT22;10181;48.072;9.884;2024-01-30T01:06:40;-1.10;99.90
20041;DHT22;10181;48.072;9.884;2024-01-30T01:09:08;-1.10;99.90
20041;DHT22;10181;48.072;9.884;2024-01-30T01:11:33;-1.10;99.90
20041;DHT22;10181;48.072;9.884;2024-01-30T01:13:59;-1.00;99.90
20041;DHT22;10181;48.072;9.884;2024-01-30T01:16:24;-1.00;99.90
20041;DHT22;10181;48.072;9.884;2024-01-30T01:18:50;-1.00;99.90
20041;DHT22;10181;48.072;9.884;2024-01-30T01:21:15;-0.90;99.90
20041;DHT22;10181;48.072;9.884;2024-01-30T01:23:41;-0.90;99.90
20041;DHT22;10181;48.072;9.884;2024-01-30T01:26:08;-0.90;99.90
20041;DHT22;10181;48.072;9.884;2024-01-30T01:28:35;-0.80;99.90
20041;DHT22;10181;48.072;9.884;2024-01-30T01:31:00;-0.70;99.90
20041;DHT22;10181;48.072;9.884;2024-01-30T01:33:34;-0.60;99.90
20041;DHT22;10181;48.072;9.884;2024-01-30T01:36:00;-0.60;99.90
20041;DHT22;10181;48.072;9.884;2024-01-30T01:38:28;-0.50;99.90
20041;DHT22;10181;48.072;9.884;2024-01-30T01:40:53;-0.50;99.90
20041;DHT22;10181;48.072;9.884;2024-01-30T01:43:19;-0.50;99.90
20041;DHT22;10181;48.072;9.884;2024-01-30T01:45:45;-0.50;99.90
20041;DHT22;10181;48.072;9.884;2024-01-30T01:48:11;-0.50;99.90
20041;DHT22;10181;48.072;9.884;2024-01-30T01:50:38;-0.40;99.90
20041;DHT22;10181;48.072;9.884;2024-01-30T01:53:07;-0.20;99.90
20041;DHT22;10181;48.072;9.884;2024-01-30T01:55:33;-0.10;99.90
20041;DHT22;10181;48.072;9.884;2024-01-30T01:57:59;-0.10;99.90
20041;DHT22;10181;48.072;9.884;2024-01-30T02:00:25;-0.10;99.90
20041;DHT22;10181;48.072;9.884;2024-01-30T02:02:52;-0.10;99.90
20041;DHT22;10181;48.072;9.884;2024-01-30T02:05:19;-0.10;99.90
20041;DHT22;10181;48.072;9.884;2024-01-30T02:07:45;-0.10;99.90
20041;DHT22;10181;48.072;9.884;2024-01-30T02:10:11;0.00;99.90
20041;DHT22;10181;48.072;9.884;2024-01-30T02:12:37;-0.10;99.90
20041;DHT22;10181;48.072;9.884;2024-01-30T02:15:03;0.00;99.90
20041;DHT22;10181;48.072;9.884;2024-01-30T02:17:30;0.00;99.90
20041;DHT22;10181;48.072;9.884;2024-01-30T02:19:56;0.00;99.90
20041;DHT22;10181;48.072;9.884;2024-01-30T02:22:22;0.10;99.90
20041;DHT22;10181;48.072;9.884;2024-01-30T02:24:49;0.20;99.90
20041;DHT22;10181;48.072;9.884;2024-01-30T02:27:14;0.20;99.90
20041;DHT22;10181;48.072;9.884;2024-01-30T02:29:40;0.30;99.90
20041;DHT22;10181;48.072;9.884;2024-01-30T02:32:06;0.40;99.90
20041;DHT22;10181;48.072;9.884;2024-01-30T02:34:33;0.60;99.90
20041;DHT22;10181;48.072;9.884;2024-01-30T02:36:59;1.00;99.90
20041;DHT22;10181;48.072;9.884;2024-01-30T02:39:25;1.10;99.90
20041;DHT22;10181;48.072;9.884;2024-01-30T02:41:50;1.10;99.90
20041;DHT22;10181;48.072;9.884;2024-01-30T02:44:16;1.10;99.90
20041;DHT22;10181;48.072;9.884;2024-01-30T02:46:42;1.00;99.90
20041;DHT22;10181;48.072;9.884;2024-01-30T02:49:07;0.90;99.90
20041;DHT22;10181;48.072;9.884;2024-01-30T02:51:33;1.00;99.90
20041;DHT22;10181;48.072;9.884;2024-01-30T02:53:59;1.10;99.90
20041;DHT22;10181;48.072;9.884;2024-01-30T02:56:24;1.20;99.90
20041;DHT22;10181;48.072;9.884;2024-01-30T02:58:50;1.20;99.90
20041;DHT22;10181;48.072;9.884;2024-01-30T03:01:15;1.20;99.90
20041;DHT22;10181;48.072;9.884;2024-01-30T03:03:41;1.00;99.90
20041;DHT22;10181;48.072;9.884;2024-01-30T03:06:08;0.90;99.90
20041;DHT22;10181;48.072;9.884;2024-01-30T03:08:34;0.70;99.90
20041;DHT22;10181;48.072;9.884;2024-01-30T03:11:00;0.60;99.90
20041;DHT22;10181;48.072;9.884;2024-01-30T03:13:26;0.50;99.90
20041;DHT22;10181;48.072;9.884;2024-01-30T03:15:51;0.30;99.90
20041;DHT22;10181;48.072;9.884;2024-01-30T03:18:17;0.20;99.90
20041;DHT22;10181;48.072;9.884;2024-01-30T03:20:43;0.10;99.90
20041;DHT22;10181;48.072;9.884;2024-01-30T03:23:09;0.10;99.90
20041;DHT22;10181;48.072;9.884;2024-01-30T03:25:34;0.10;99.90
20041;DHT22;10181;48.072;9.884;2024-01-30T03:28:00;0.00;99.90
20041;DHT22;10181;48.072;9.884;2024-01-30T03:30:26;0.00;99.90
20041;DHT22;10181;48.072;9.884;2024-01-30T03:32:51;0.00;99.90
20041;DHT22;10181;48.072;9.884;2024-01-30T03:35:19;0.00;99.90
20041;DHT22;10181;48.072;9.884;2024-01-30T03:37:44;0.00;99.90
20041;DHT22;10181;48.072;9.884;2024-01-30T03:40:10;0.10;99.90
20041;DHT22;10181;48.072;9.884;2024-01-30T03:42:36;0.10;99.90
20041;DHT22;10181;48.072;9.884;2024-01-30T03:45:02;0.10;99.90
20041;DHT22;10181;48.072;9.884;2024-01-30T03:47:27;0.10;99.90
20041;DHT22;10181;48.072;9.884;2024-01-30T03:49:53;0.10;99.90
20041;DHT22;10181;48.072;9.884;2024-01-30T03:52:19;0.10;99.90
20041;DHT22;10181;48.072;9.884;2024-01-30T03:54:44;0.00;99.90
20041;DHT22;10181;48.072;9.884;2024-01-30T03:57:10;0.00;99.90
20041;DHT22;10181;48.072;9.884;2024-01-30T03:59:35;0.20;99.90
20041;DHT22;10181;48.072;9.884;2024-01-30T04:02:01;0.40;99.90
20041;DHT22;10181;48.072;9.884;2024-01-30T04:04:27;0.70;99.90
20041;DHT22;10181;48.072;9.884;2024-01-30T04:06:52;0.80;99.90
20041;DHT22;10181;48.072;9.884;2024-01-30T04:09:18;0.80;99.90
20041;DHT22;10181;48.072;9.884;2024-01-30T04:11:44;0.80;99.90
20041;DHT22;10181;48.072;9.884;2024-01-30T04:14:10;0.70;99.90
20041;DHT22;10181;48.072;9.884;2024-01-30T04:16:35;0.60;99.90
20041;DHT22;10181;48.072;9.884;2024-01-30T04:19:01;0.50;99.90
20041;DHT22;10181;48.072;9.884;2024-01-30T04:21:27;0.40;99.90
20041;DHT22;10181;48.072;9.884;2024-01-30T04:23:53;0.40;99.90
20041;DHT22;10181;48.072;9.884;2024-01-30T04:26:18;0.30;99.90
20041;DHT22;10181;48.072;9.884;2024-01-30T04:28:45;0.30;99.90
20041;DHT22;10181;48.072;9.884;2024-01-30T04:31:11;0.30;99.90
20041;DHT22;10181;48.072;9.884;2024-01-30T04:33:37;0.30;99.90
20041;DHT22;10181;48.072;9.884;2024-01-30T04:36:03;0.30;99.90
20041;DHT22;10181;48.072;9.884;2024-01-30T04:38:29;0.20;99.90
20041;DHT22;10181;48.072;9.884;2024-01-30T04:40:54;0.20;99.90
20041;DHT22;10181;48.072;9.884;2024-01-30T04:43:20;0.10;99.90
20041;DHT22;10181;48.072;9.884;2024-01-30T04:45:45;0.10;99.90
20041;DHT22;10181;48.072;9.884;2024-01-30T04:48:11;0.10;99.90
20041;DHT22;10181;48.072;9.884;2024-01-30T04:50:37;0.00;99.90
20041;DHT22;10181;48.072;9.884;2024-01-30T04:53:02;0.00;99.90
20041;DHT22;10181;48.072;9.884;2024-01-30T04:55:28;0.00;99.90
20041;DHT22;10181;48.072;9.884;2024-01-30T04:57:53;0.00;99.90
20041;DHT22;10181;48.072;9.884;2024-01-30T05:00:19;0.00;99.90
20041;DHT22;10181;48.072;9.884;2024-01-30T05:02:45;0.10;99.90
20041;DHT22;10181;48.072;9.884;2024-01-30T05:05:10;0.40;99.90
20041;DHT22;10181;48.072;9.884;2024-01-30T05:07:36;0.70;99.90
20041;DHT22;10181;48.072;9.884;2024-01-30T05:10:02;1.00;99.90
20041;DHT22;10181;48.072;9.884;2024-01-30T05:12:28;1.20;99.90
20041;DHT22;10181;48.072;9.884;2024-01-30T05:14:54;1.20;99.90
20041;DHT22;10181;48.072;9.884;2024-01-30T05:17:20;1.10;99.90
20041;DHT22;10181;48.072;9.884;2024-01-30T05:19:45;1.00;99.90
20041;DHT22;10181;48.072;9.884;2024-01-30T05:22:11;0.90;99.90
20041;DHT22;10181;48.072;9.884;2024-01-30T05:24:41;0.80;99.90
20041;DHT22;10181;48.072;9.884;2024-01-30T05:27:07;0.70;99.90
20041;DHT22;10181;48.072;9.884;2024-01-30T05:29:33;0.60;99.90
20041;DHT22;10181;48.072;9.884;2024-01-30T05:31:59;0.60;99.90
20041;DHT22;10181;48.072;9.884;2024-01-30T05:34:24;0.50;99.90
20041;DHT22;10181;48.072;9.884;2024-01-30T05:36:50;0.30;99.90
20041;DHT22;10181;48.072;9.884;2024-01-30T05:39:15;0.20;99.90
20041;DHT22;10181;48.072;9.884;2024-01-30T05:41:41;0.10;99.90
20041;DHT22;10181;48.072;9.884;2024-01-30T05:44:06;0.00;99.90
20041;DHT22;10181;48.072;9.884;2024-01-30T05:46:34;0.00;99.90
20041;DHT22;10181;48.072;9.884;2024-01-30T05:49:00;-0.10;99.90
20041;DHT22;10181;48.072;9.884;2024-01-30T05:51:26;-0.20;99.90
20041;DHT22;10181;48.072;9.884;2024-01-30T05:53:53;-0.30;99.90
20041;DHT22;10181;48.072;9.884;2024-01-30T05:56:19;-0.40;99.90
20041;DHT22;10181;48.072;9.884;2024-01-30T05:58:44;-0.40;99.90
20041;DHT22;10181;48.072;9.884;2024-01-30T06:01:10;-0.40;99.90
20041;DHT22;10181;48.072;9.884;2024-01-30T06:03:35;-0.30;99.90
20041;DHT22;10181;48.072;9.884;2024-01-30T06:06:01;-0.40;99.90
20041;DHT22;10181;48.072;9.884;2024-01-30T06:08:27;-0.40;99.90
20041;DHT22;10181;48.072;9.884;2024-01-30T06:10:52;-0.40;99.90
20041;DHT22;10181;48.072;9.884;2024-01-30T06:13:18;-0.40;99.90
20041;DHT22;10181;48.072;9.884;2024-01-30T06:15:44;-0.50;99.90
20041;DHT22;10181;48.072;9.884;2024-01-30T06:18:09;-0.50;99.90
20041;DHT22;10181;48.072;9.884;2024-01-30T06:20:35;-0.50;99.90
20041;DHT22;10181;48.072;9.884;2024-01-30T06:23:00;-0.50;99.90
20041;DHT22;10181;48.072;9.884;2024-01-30T06:25:26;-0.50;99.90
20041;DHT22;10181;48.072;9.884;2024-01-30T06:27:52;-0.50;99.90
20041;DHT22;10181;48.072;9.884;2024-01-30T06:30:18;-0.60;99.90
20041;DHT22;10181;48.072;9.884;2024-01-30T06:32:44;-0.60;99.90
20041;DHT22;10181;48.072;9.884;2024-01-30T06:35:09;-0.50;99.90
20041;DHT22;10181;48.072;9.884;2024-01-30T06:37:36;-0.30;99.90
20041;DHT22;10181;48.072;9.884;2024-01-30T06:40:01;0.00;99.90
20041;DHT22;10181;48.072;9.884;2024-01-30T06:42:27;0.20;99.90
20041;DHT22;10181;48.072;9.884;2024-01-30T06:44:53;0.50;99.90
20041;DHT22;10181;48.072;9.884;2024-01-30T06:47:19;0.90;99.90
20041;DHT22;10181;48.072;9.884;2024-01-30T06:49:44;1.20;99.90
20041;DHT22;10181;48.072;9.884;2024-01-30T06:52:10;1.40;99.90
20041;DHT22;10181;48.072;9.884;2024-01-30T06:54:36;1.60;99.90
20041;DHT22;10181;48.072;9.884;2024-01-30T06:57:02;1.70;99.90
20041;DHT22;10181;48.072;9.884;2024-01-30T06:59:28;1.70;99.90
20041;DHT22;10181;48.072;9.884;2024-01-30T07:01:54;1.60;99.90
20041;DHT22;10181;48.072;9.884;2024-01-30T07:04:19;1.60;99.90
20041;DHT22;10181;48.072;9.884;2024-01-30T07:06:45;1.60;99.90
20041;DHT22;10181;48.072;9.884;2024-01-30T07:09:12;1.70;99.90
20041;DHT22;10181;48.072;9.884;2024-01-30T07:11:39;1.70;99.90
20041;DHT22;10181;48.072;9.884;2024-01-30T07:14:04;1.70;99.90
20041;DHT22;10181;48.072;9.884;2024-01-30T07:16:30;1.60;99.90
20041;DHT22;10181;48.072;9.884;2024-01-30T07:18:55;1.70;99.90
20041;DHT22;10181;48.072;9.884;2024-01-30T07:21:22;1.80;99.90
20041;DHT22;10181;48.072;9.884;2024-01-30T07:23:53;2.00;99.90
20041;DHT22;10181;48.072;9.884;2024-01-30T07:26:19;2.40;99.90
20041;DHT22;10181;48.072;9.884;2024-01-30T07:28:44;2.50;99.90
20041;DHT22;10181;48.072;9.884;2024-01-30T07:31:10;2.50;99.90
20041;DHT22;10181;48.072;9.884;2024-01-30T07:33:36;2.60;99.90
20041;DHT22;10181;48.072;9.884;2024-01-30T07:36:02;2.60;99.90
20041;DHT22;10181;48.072;9.884;2024-01-30T07:38:27;2.60;99.90
20041;DHT22;10181;48.072;9.884;2024-01-30T07:40:53;2.60;99.90
20041;DHT22;10181;48.072;9.884;2024-01-30T07:43:18;2.50;99.90
20041;DHT22;10181;48.072;9.884;2024-01-30T07:45:45;2.50;99.90
20041;DHT22;10181;48.072;9.884;2024-01-30T07:48:11;2.60;99.90
20041;DHT22;10181;48.072;9.884;2024-01-30T07:50:36;2.90;99.90
20041;DHT22;10181;48.072;9.884;2024-01-30T07:53:02;3.20;99.90
20041;DHT22;10181;48.072;9.884;2024-01-30T07:55:28;3.50;99.90
20041;DHT22;10181;48.072;9.884;2024-01-30T07:57:55;3.60;99.90
20041;DHT22;10181;48.072;9.884;2024-01-30T08:00:21;3.70;99.90
20041;DHT22;10181;48.072;9.884;2024-01-30T08:02:47;3.80;99.90
20041;DHT22;10181;48.072;9.884;2024-01-30T08:05:13;3.90;99.90
20041;DHT22;10181;48.072;9.884;2024-01-30T08:07:41;3.90;99.90
20041;DHT22;10181;48.072;9.884;2024-01-30T08:10:07;4.10;99.90
20041;DHT22;10181;48.072;9.884;2024-01-30T08:12:33;4.10;99.90
20041;DHT22;10181;48.072;9.884;2024-01-30T08:14:59;4.20;99.90
20041;DHT22;10181;48.072;9.884;2024-01-30T08:17:24;4.30;99.90
20041;DHT22;10181;48.072;9.884;2024-01-30T08:19:50;4.30;99.90
20041;DHT22;10181;48.072;9.884;2024-01-30T08:22:15;4.30;99.90
20041;DHT22;10181;48.072;9.884;2024-01-30T08:24:41;4.40;99.90
20041;DHT22;10181;48.072;9.884;2024-01-30T08:27:07;4.40;99.90
20041;DHT22;10181;48.072;9.884;2024-01-30T08:29:35;4.40;99.90
20041;DHT22;10181;48.072;9.884;2024-01-30T08:32:01;4.40;99.90
20041;DHT22;10181;48.072;9.884;2024-01-30T08:34:27;4.50;99.90
20041;DHT22;10181;48.072;9.884;2024-01-30T08:36:53;4.50;99.90
20041;DHT22;10181;48.072;9.884;2024-01-30T08:39:18;4.60;99.90
20041;DHT22;10181;48.072;9.884;2024-01-30T08:41:44;4.80;99.90
20041;DHT22;10181;48.072;9.884;2024-01-30T08:44:10;5.00;99.90
20041;DHT22;10181;48.072;9.884;2024-01-30T08:46:36;5.10;99.90
20041;DHT22;10181;48.072;9.884;2024-01-30T08:49:02;5.10;99.90
20041;DHT22;10181;48.072;9.884;2024-01-30T08:51:29;5.20;99.90
20041;DHT22;10181;48.072;9.884;2024-01-30T08:53:55;5.30;99.90
20041;DHT22;10181;48.072;9.884;2024-01-30T08:56:21;5.40;99.90
20041;DHT22;10181;48.072;9.884;2024-01-30T08:58:46;5.50;99.90
20041;DHT22;10181;48.072;9.884;2024-01-30T09:01:12;5.50;99.90
20041;DHT22;10181;48.072;9.884;2024-01-30T09:03:38;5.50;99.90
20041;DHT22;10181;48.072;9.884;2024-01-30T09:06:09;5.50;99.90
20041;DHT22;10181;48.072;9.884;2024-01-30T09:08:35;5.60;99.90
20041;DHT22;10181;48.072;9.884;2024-01-30T09:11:00;5.60;99.90
20041;DHT22;10181;48.072;9.884;2024-01-30T09:13:26;5.60;99.90
20041;DHT22;10181;48.072;9.884;2024-01-30T09:15:51;5.60;99.90
20041;DHT22;10181;48.072;9.884;2024-01-30T09:18:18;5.60;99.90
20041;DHT22;10181;48.072;9.884;2024-01-30T09:20:43;5.60;99.90
20041;DHT22;10181;48.072;9.884;2024-01-30T09:23:12;5.60;99.90
20041;DHT22;10181;48.072;9.884;2024-01-30T09:25:38;5.60;99.90
20041;DHT22;10181;48.072;9.884;2024-01-30T09:28:04;5.50;99.90
20041;DHT22;10181;48.072;9.884;2024-01-30T09:30:30;5.50;99.90
20041;DHT22;10181;48.072;9.884;2024-01-30T09:32:55;5.50;99.90
20041;DHT22;10181;48.072;9.884;2024-01-30T09:35:21;5.50;99.90
20041;DHT22;10181;48.072;9.884;2024-01-30T09:37:46;5.50;99.90
20041;DHT22;10181;48.072;9.884;2024-01-30T09:40:13;5.60;99.90
20041;DHT22;10181;48.072;9.884;2024-01-30T09:42:40;5.70;99.90
20041;DHT22;10181;48.072;9.884;2024-01-30T09:45:09;5.80;99.90
20041;DHT22;10181;48.072;9.884;2024-01-30T09:47:41;6.00;99.90
20041;DHT22;10181;48.072;9.884;2024-01-30T09:50:09;6.10;99.90
20041;DHT22;10181;48.072;9.884;2024-01-30T09:52:35;6.20;99.90
20041;DHT22;10181;48.072;9.884;2024-01-30T09:55:01;6.30;99.90
20041;DHT22;10181;48.072;9.884;2024-01-30T09:57:28;6.40;99.90
20041;DHT22;10181;48.072;9.884;2024-01-30T09:59:54;6.50;99.90
20041;DHT22;10181;48.072;9.884;2024-01-30T10:02:20;6.60;99.90
20041;DHT22;10181;48.072;9.884;2024-01-30T10:04:49;6.70;99.90
20041;DHT22;10181;48.072;9.884;2024-01-30T10:07:15;6.80;99.90
20041;DHT22;10181;48.072;9.884;2024-01-30T10:09:41;6.90;99.90
20041;DHT22;10181;48.072;9.884;2024-01-30T10:12:07;6.90;99.90
20041;DHT22;10181;48.072;9.884;2024-01-30T10:14:33;7.00;99.90
20041;DHT22;10181;48.072;9.884;2024-01-30T10:16:59;7.00;99.90
20041;DHT22;10181;48.072;9.884;2024-01-30T10:19:25;7.00;99.90
20041;DHT22;10181;48.072;9.884;2024-01-30T10:21:51;7.00;99.90
20041;DHT22;10181;48.072;9.884;2024-01-30T10:24:16;7.00;99.90
20041;DHT22;10181;48.072;9.884;2024-01-30T10:26:44;6.90;99.90
20041;DHT22;10181;48.072;9.884;2024-01-30T10:29:09;6.90;99.90
20041;DHT22;10181;48.072;9.884;2024-01-30T10:31:35;6.90;99.90
20041;DHT22;10181;48.072;9.884;2024-01-30T10:34:01;6.90;99.90
20041;DHT22;10181;48.072;9.884;2024-01-30T10:36:28;6.90;99.90
20041;DHT22;10181;48.072;9.884;2024-01-30T10:38:56;7.00;99.90
20041;DHT22;10181;48.072;9.884;2024-01-30T10:41:27;7.00;99.90
20041;DHT22;10181;48.072;9.884;2024-01-30T10:44:07;7.10;99.90
20041;DHT22;10181;48.072;9.884;2024-01-30T10:46:33;7.30;99.90
20041;DHT22;10181;48.072;9.884;2024-01-30T10:49:00;7.40;99.90
20041;DHT22;10181;48.072;9.884;2024-01-30T10:51:27;7.50;99.90
20041;DHT22;10181;48.072;9.884;2024-01-30T10:53:53;7.60;99.90
20041;DHT22;10181;48.072;9.884;2024-01-30T10:56:21;7.80;99.90
20041;DHT22;10181;48.072;9.884;2024-01-30T10:58:49;7.90;99.90
20041;DHT22;10181;48.072;9.884;2024-01-30T11:01:15;7.90;99.90
20041;DHT22;10181;48.072;9.884;2024-01-30T11:03:41;8.00;99.90
20041;DHT22;10181;48.072;9.884;2024-01-30T11:06:11;8.10;99.90
20041;DHT22;10181;48.072;9.884;2024-01-30T11:08:39;8.20;99.90
20041;DHT22;10181;48.072;9.884;2024-01-30T11:11:08;8.20;99.90
20041;DHT22;10181;48.072;9.884;2024-01-30T11:13:34;8.20;99.90
20041;DHT22;10181;48.072;9.884;2024-01-30T11:16:04;8.40;99.90
20041;DHT22;10181;48.072;9.884;2024-01-30T11:18:31;8.40;99.90
20041;DHT22;10181;48.072;9.884;2024-01-30T11:20:58;8.50;99.90
20041;DHT22;10181;48.072;9.884;2024-01-30T11:23:26;8.60;99.90
20041;DHT22;10181;48.072;9.884;2024-01-30T11:25:53;8.60;99.90
20041;DHT22;10181;48.072;9.884;2024-01-30T11:28:19;8.70;99.90
20041;DHT22;10181;48.072;9.884;2024-01-30T11:30:46;8.70;99.90
20041;DHT22;10181;48.072;9.884;2024-01-30T11:33:13;8.70;99.90
20041;DHT22;10181;48.072;9.884;2024-01-30T11:35:41;8.70;99.90
20041;DHT22;10181;48.072;9.884;2024-01-30T11:38:08;8.70;99.90
20041;DHT22;10181;48.072;9.884;2024-01-30T11:40:35;8.70;99.90
20041;DHT22;10181;48.072;9.884;2024-01-30T11:43:02;8.70;99.90
20041;DHT22;10181;48.072;9.884;2024-01-30T11:45:28;8.80;99.90
20041;DHT22;10181;48.072;9.884;2024-01-30T11:47:54;8.90;99.90
20041;DHT22;10181;48.072;9.884;2024-01-30T11:50:21;8.80;99.90
20041;DHT22;10181;48.072;9.884;2024-01-30T11:52:47;8.70;99.90
20041;DHT22;10181;48.072;9.884;2024-01-30T11:55:14;8.70;99.90
20041;DHT22;10181;48.072;9.884;2024-01-30T11:57:40;8.60;99.90
20041;DHT22;10181;48.072;9.884;2024-01-30T12:00:13;8.60;99.90
20041;DHT22;10181;48.072;9.884;2024-01-30T12:02:39;8.50;99.90
20041;DHT22;10181;48.072;9.884;2024-01-30T12:05:08;8.70;99.90
20041;DHT22;10181;48.072;9.884;2024-01-30T12:07:37;8.70;99.90
20041;DHT22;10181;48.072;9.884;2024-01-30T12:10:03;8.80;99.90
20041;DHT22;10181;48.072;9.884;2024-01-30T12:12:31;9.00;99.90
20041;DHT22;10181;48.072;9.884;2024-01-30T12:15:00;9.10;99.90
20041;DHT22;10181;48.072;9.884;2024-01-30T12:17:31;9.20;99.90
20041;DHT22;10181;48.072;9.884;2024-01-30T12:20:26;9.10;99.90
20041;DHT22;10181;48.072;9.884;2024-01-30T12:22:52;9.00;99.90
20041;DHT22;10181;48.072;9.884;2024-01-30T12:25:20;8.90;99.90
20041;DHT22;10181;48.072;9.884;2024-01-30T12:27:47;8.90;99.90
20041;DHT22;10181;48.072;9.884;2024-01-30T12:30:17;9.10;99.90
20041;DHT22;10181;48.072;9.884;2024-01-30T12:32:44;9.30;99.90
20041;DHT22;10181;48.072;9.884;2024-01-30T12:35:10;9.40;99.90
20041;DHT22;10181;48.072;9.884;2024-01-30T12:37:37;9.40;99.90
20041;DHT22;10181;48.072;9.884;2024-01-30T12:40:03;9.30;99.90
20041;DHT22;10181;48.072;9.884;2024-01-30T12:42:29;9.50;99.90
20041;DHT22;10181;48.072;9.884;2024-01-30T12:44:57;9.60;99.90
20041;DHT22;10181;48.072;9.884;2024-01-30T12:47:23;9.60;99.90
20041;DHT22;10181;48.072;9.884;2024-01-30T12:49:48;9.60;99.90
20041;DHT22;10181;48.072;9.884;2024-01-30T12:52:16;9.90;99.90
20041;DHT22;10181;48.072;9.884;2024-01-30T12:54:41;9.90;99.90
20041;DHT22;10181;48.072;9.884;2024-01-30T12:57:07;9.90;99.90
20041;DHT22;10181;48.072;9.884;2024-01-30T12:59:32;9.90;99.90
20041;DHT22;10181;48.072;9.884;2024-01-30T13:02:00;9.80;99.90
20041;DHT22;10181;48.072;9.884;2024-01-30T13:04:27;9.80;99.90
20041;DHT22;10181;48.072;9.884;2024-01-30T13:06:53;9.90;99.90
20041;DHT22;10181;48.072;9.884;2024-01-30T13:09:19;10.20;99.90
20041;DHT22;10181;48.072;9.884;2024-01-30T13:11:45;10.40;99.90
20041;DHT22;10181;48.072;9.884;2024-01-30T13:14:10;10.40;99.90
20041;DHT22;10181;48.072;9.884;2024-01-30T13:16:36;10.40;99.90
20041;DHT22;10181;48.072;9.884;2024-01-30T13:19:02;10.50;99.90
20041;DHT22;10181;48.072;9.884;2024-01-30T13:21:28;10.60;99.90
20041;DHT22;10181;48.072;9.884;2024-01-30T13:23:54;10.60;99.90
20041;DHT22;10181;48.072;9.884;2024-01-30T13:26:20;10.60;99.90
20041;DHT22;10181;48.072;9.884;2024-01-30T13:28:46;10.60;99.90
20041;DHT22;10181;48.072;9.884;2024-01-30T13:31:13;10.50;99.90
20041;DHT22;10181;48.072;9.884;2024-01-30T13:33:39;10.40;99.90
20041;DHT22;10181;48.072;9.884;2024-01-30T13:36:04;10.20;99.90
20041;DHT22;10181;48.072;9.884;2024-01-30T13:38:30;10.20;99.90
20041;DHT22;10181;48.072;9.884;2024-01-30T13:40:56;10.10;99.90
20041;DHT22;10181;48.072;9.884;2024-01-30T13:43:21;10.00;99.90
20041;DHT22;10181;48.072;9.884;2024-01-30T13:45:47;9.90;99.90
20041;DHT22;10181;48.072;9.884;2024-01-30T13:48:13;9.90;99.90
20041;DHT22;10181;48.072;9.884;2024-01-30T13:50:38;9.80;99.90
20041;DHT22;10181;48.072;9.884;2024-01-30T13:53:04;9.80;99.90
20041;DHT22;10181;48.072;9.884;2024-01-30T13:55:30;9.70;99.90
20041;DHT22;10181;48.072;9.884;2024-01-30T13:57:55;9.50;99.90
20041;DHT22;10181;48.072;9.884;2024-01-30T14:00:22;9.50;99.90
20041;DHT22;10181;48.072;9.884;2024-01-30T14:02:48;9.40;99.90
20041;DHT22;10181;48.072;9.884;2024-01-30T14:05:14;9.40;99.90
20041;DHT22;10181;48.072;9.884;2024-01-30T14:07:40;9.40;99.90
20041;DHT22;10181;48.072;9.884;2024-01-30T14:10:09;9.40;99.90
20041;DHT22;10181;48.072;9.884;2024-01-30T14:12:36;9.30;99.90
20041;DHT22;10181;48.072;9.884;2024-01-30T14:15:01;9.20;99.90
20041;DHT22;10181;48.072;9.884;2024-01-30T14:17:27;9.10;99.90
20041;DHT22;10181;48.072;9.884;2024-01-30T14:19:53;9.10;99.90
20041;DHT22;10181;48.072;9.884;2024-01-30T14:22:18;9.10;99.90
20041;DHT22;10181;48.072;9.884;2024-01-30T14:24:44;9.10;99.90
20041;DHT22;10181;48.072;9.884;2024-01-30T14:27:10;9.10;99.90
20041;DHT22;10181;48.072;9.884;2024-01-30T14:29:35;9.10;99.90
20041;DHT22;10181;48.072;9.884;2024-01-30T14:32:02;9.10;99.90
20041;DHT22;10181;48.072;9.884;2024-01-30T14:34:29;9.10;99.90
20041;DHT22;10181;48.072;9.884;2024-01-30T14:36:55;9.10;99.90
20041;DHT22;10181;48.072;9.884;2024-01-30T14:39:20;9.10;99.90
20041;DHT22;10181;48.072;9.884;2024-01-30T14:41:46;9.10;99.90
20041;DHT22;10181;48.072;9.884;2024-01-30T14:44:12;9.10;99.90
20041;DHT22;10181;48.072;9.884;2024-01-30T14:46:37;9.20;99.90
20041;DHT22;10181;48.072;9.884;2024-01-30T14:49:03;9.20;99.90
20041;DHT22;10181;48.072;9.884;2024-01-30T14:51:33;9.30;99.90
20041;DHT22;10181;48.072;9.884;2024-01-30T14:53:59;9.40;99.90
20041;DHT22;10181;48.072;9.884;2024-01-30T14:56:26;9.50;99.90
20041;DHT22;10181;48.072;9.884;2024-01-30T14:58:52;9.60;99.90
20041;DHT22;10181;48.072;9.884;2024-01-30T15:01:17;9.70;99.90
20041;DHT22;10181;48.072;9.884;2024-01-30T15:03:44;9.60;99.90
20041;DHT22;10181;48.072;9.884;2024-01-30T15:06:11;9.50;99.90
20041;DHT22;10181;48.072;9.884;2024-01-30T15:08:37;9.40;99.90
20041;DHT22;10181;48.072;9.884;2024-01-30T15:11:03;9.50;99.90
20041;DHT22;10181;48.072;9.884;2024-01-30T15:13:30;9.40;99.90
20041;DHT22;10181;48.072;9.884;2024-01-30T15:15:55;9.30;99.90
20041;DHT22;10181;48.072;9.884;2024-01-30T15:18:21;9.20;99.90
20041;DHT22;10181;48.072;9.884;2024-01-30T15:20:47;9.00;99.90
20041;DHT22;10181;48.072;9.884;2024-01-30T15:23:12;8.90;99.90
20041;DHT22;10181;48.072;9.884;2024-01-30T15:25:38;8.80;99.90
20041;DHT22;10181;48.072;9.884;2024-01-30T15:28:03;8.80;99.90
20041;DHT22;10181;48.072;9.884;2024-01-30T15:30:29;8.70;99.90
20041;DHT22;10181;48.072;9.884;2024-01-30T15:32:55;8.60;99.90
20041;DHT22;10181;48.072;9.884;2024-01-30T15:35:20;8.40;99.90